ENMH

Mehamn Airport

Mehamn, Norway
METAR ENMH 192220Z 19024KT 9999 SCT009 BKN040 M08/M11 Q1005
Observed Flight Rules
Jan-19 @ 22:20 UTC (3 hours ago) Visual Flight Rules
Wind Visibility Clouds
190° at 24 knots 10,000+ meters
  • Scattered at 900' AGL
  • Broken at 4,000' AGL
Temperatures Readings
Current -8°C / 18°F
Dewpoint -11°C / 12°F
Humidity 79%
Altimeter 29.68" Hg
Pressure 1005 hPa
Elevation 13
METAR ENMH 192220Z 19024KT 9999 SCT009 BKN040 M08/M11 Q1005
Observed Flight Rules
Jan-19 @ 22:20 UTC
(3 hours ago)
VFR
Wind Visibility
190° at 24 knots 10,000+ meters
Clouds
  • Scattered at 900' AGL
  • Broken at 4,000' AGL
Temperature Dewpoint
-8°C / 18°F -11°C / 12°F
Humidity Altimeter Pressure
79% 29.68" Hg 1005 hPa